createdAt,value
2023-03-04T00:01:36.966Z,88.75
2023-03-04T00:04:24.996Z,88.53
2023-03-04T00:07:17.034Z,88.58
2023-03-04T00:10:08.129Z,88.38
2023-03-04T00:12:55.014Z,88.25
2023-03-04T00:15:44.580Z,88.25
2023-03-04T00:18:31.117Z,88.28
2023-03-04T00:21:23.744Z,88.06
2023-03-04T00:24:12.515Z,88.15
2023-03-04T00:27:02.480Z,88.32
2023-03-04T00:29:51.432Z,88.36
2023-03-04T00:32:38.088Z,88.15
2023-03-04T00:35:24.377Z,88.49
2023-03-04T00:38:17.500Z,88.32
2023-03-04T00:41:03.959Z,88.15
2023-03-04T00:43:50.554Z,88.00
2023-03-04T00:46:38.361Z,87.98
2023-03-04T00:49:25.996Z,88.14
2023-03-04T00:52:16.054Z,87.63
2023-03-04T00:55:06.910Z,87.29
2023-03-04T00:57:55.786Z,87.80
2023-03-04T01:00:42.658Z,87.81
2023-03-04T01:03:31.569Z,87.84
2023-03-04T01:06:23.411Z,87.70
2023-03-04T01:09:13.877Z,87.63
2023-03-04T01:12:00.928Z,87.75
2023-03-04T01:14:47.416Z,87.83
2023-03-04T01:17:36.216Z,87.19
2023-03-04T01:20:22.850Z,86.91
2023-03-04T01:23:09.767Z,86.86
2023-03-04T01:25:56.418Z,87.05
2023-03-04T01:28:47.560Z,86.89
2023-03-04T01:31:34.452Z,87.05
2023-03-04T01:34:23.657Z,86.85
2023-03-04T01:37:13.005Z,86.72
2023-03-04T01:40:08.685Z,86.90
2023-03-04T01:42:55.440Z,87.24
2023-03-04T01:45:45.980Z,87.82
2023-03-04T01:48:38.103Z,88.19
2023-03-04T01:51:26.378Z,88.36
2023-03-04T01:54:13.199Z,88.57
2023-03-04T01:57:01.200Z,88.43
2023-03-04T02:00:28.769Z,88.24
2023-03-04T02:03:19.632Z,87.96
2023-03-04T02:06:06.784Z,87.68
2023-03-04T02:08:53.685Z,87.24
2023-03-04T02:11:40.789Z,87.48
2023-03-04T02:14:28.901Z,88.30
2023-03-04T02:17:15.731Z,88.45
2023-03-04T02:20:18.489Z,88.28
2023-03-04T02:23:32.321Z,88.43
2023-03-04T02:26:23.721Z,88.96
2023-03-04T02:29:12.217Z,89.13
2023-03-04T02:32:05.098Z,89.13
2023-03-04T02:39:50.411Z,89.47
2023-03-04T02:42:37.818Z,89.43
2023-03-04T02:45:45.365Z,89.65
2023-03-04T02:48:33.236Z,89.63
2023-03-04T02:51:20.197Z,89.50
2023-03-04T02:54:20.139Z,89.28
2023-03-04T02:57:10.441Z,89.51
2023-03-04T03:00:01.135Z,89.71
2023-03-04T03:02:48.047Z,89.79
2023-03-04T03:05:35.677Z,89.98
2023-03-04T03:08:41.079Z,90.09
2023-03-04T03:11:27.735Z,90.57
2023-03-04T03:14:19.451Z,90.69
2023-03-04T03:17:06.204Z,90.61
2023-03-04T03:19:53.072Z,90.57
2023-03-04T03:22:40.517Z,90.71
2023-03-04T03:25:27.186Z,90.60
2023-03-04T03:28:16.315Z,90.67
2023-03-04T03:31:03.258Z,90.21
2023-03-04T03:33:50.869Z,90.43
2023-03-04T03:36:37.824Z,90.30
2023-03-04T03:39:24.286Z,90.12
2023-03-04T03:42:11.185Z,90.15
2023-03-04T03:44:58.176Z,89.91
2023-03-04T03:47:45.726Z,89.98
2023-03-04T03:50:33.484Z,89.83
2023-03-04T03:53:20.733Z,89.37
2023-03-04T03:56:07.869Z,89.45
2023-03-04T03:58:54.319Z,89.59
2023-03-04T04:01:42.945Z,89.40
2023-03-04T04:04:29.853Z,89.14
2023-03-04T04:07:16.644Z,89.36
2023-03-04T04:10:05.755Z,89.09
2023-03-04T04:12:52.987Z,89.14
2023-03-04T04:15:40.186Z,89.11
2023-03-04T04:18:29.277Z,89.14
2023-03-04T04:21:15.882Z,88.73
2023-03-04T04:24:02.562Z,88.57
2023-03-04T04:26:49.473Z,88.25
2023-03-04T04:29:36.013Z,87.94
2023-03-04T04:32:22.855Z,87.86
2023-03-04T04:35:09.935Z,87.84
2023-03-04T04:37:56.784Z,87.59
2023-03-04T04:40:45.747Z,87.26
2023-03-04T04:43:32.562Z,87.06
2023-03-04T04:46:19.257Z,86.93
2023-03-04T04:49:07.084Z,87.00
2023-03-04T04:51:53.359Z,86.86
2023-03-04T04:54:40.039Z,87.04
2023-03-04T04:57:26.696Z,86.68
2023-03-04T05:00:14.072Z,86.63
2023-03-04T05:03:00.464Z,86.61
2023-03-04T05:05:47.502Z,86.71
2023-03-04T05:08:34.760Z,86.69
2023-03-04T05:11:23.901Z,86.50
2023-03-04T05:14:10.481Z,86.47
2023-03-04T05:16:57.215Z,86.28
2023-03-04T05:19:43.716Z,86.23
2023-03-04T05:25:22.693Z,86.14
2023-03-04T05:28:37.657Z,86.05
2023-03-04T05:33:33.498Z,85.92
2023-03-04T05:36:58.735Z,86.30
2023-03-04T05:40:36.396Z,86.19
2023-03-04T05:43:25.157Z,86.14
2023-03-04T05:46:38.548Z,86.20
2023-03-04T05:49:43.203Z,86.23
2023-03-04T05:53:30.365Z,86.48
2023-03-04T05:57:15.261Z,86.56
2023-03-04T06:01:07.958Z,86.82
2023-03-04T06:03:58.690Z,86.44
2023-03-04T06:07:05.637Z,86.87
2023-03-04T06:10:27.145Z,86.51
2023-03-04T06:14:09.204Z,86.56
2023-03-04T06:17:44.848Z,86.37
2023-03-04T06:21:30.007Z,86.35
2023-03-04T06:24:28.324Z,85.87
2023-03-04T06:28:14.796Z,85.87
2023-03-04T06:31:10.655Z,85.39
2023-03-04T06:34:23.136Z,85.40
2023-03-04T06:38:11.979Z,85.32
2023-03-04T06:45:32.500Z,85.26
2023-03-04T06:48:31.392Z,85.51
2023-03-04T06:51:45.711Z,85.44
2023-03-04T06:55:07.119Z,85.83
2023-03-04T06:58:14.504Z,85.43
2023-03-04T07:01:26.258Z,85.00
2023-03-04T07:04:15.045Z,85.31
2023-03-04T07:07:02.885Z,85.44
2023-03-04T07:23:36.309Z,84.65
2023-03-04T07:27:09.694Z,84.39
2023-03-04T07:30:46.272Z,84.56
2023-03-04T07:34:16.059Z,84.88
2023-03-04T07:41:45.638Z,85.19
2023-03-04T07:47:59.025Z,85.06
2023-03-04T07:52:55.487Z,84.85
2023-03-04T07:56:29.154Z,84.92
2023-03-04T07:59:34.720Z,84.65
2023-03-04T08:02:24.484Z,84.18
2023-03-04T08:06:15.513Z,83.74
2023-03-04T08:09:36.917Z,83.83
2023-03-04T08:13:55.371Z,83.64
2023-03-04T08:17:58.866Z,83.75
2023-03-04T08:21:27.175Z,83.12
2023-03-04T08:26:07.387Z,83.20
2023-03-04T08:30:30.032Z,83.50
2023-03-04T08:34:29.805Z,83.18
2023-03-04T08:37:41.443Z,83.03
2023-03-04T08:41:58.049Z,83.10
2023-03-04T09:01:36.648Z,82.37
2023-03-04T09:05:12.966Z,82.33
2023-03-04T09:08:00.044Z,82.53
2023-03-04T09:10:53.324Z,82.52
2023-03-04T09:13:42.240Z,82.45
2023-03-04T09:16:29.300Z,81.83
2023-03-04T09:21:13.110Z,81.13
2023-03-04T09:26:08.047Z,81.05
2023-03-04T09:29:12.509Z,80.97
2023-03-04T09:48:55.803Z,81.50
2023-03-04T09:52:32.042Z,80.89
2023-03-04T09:55:40.541Z,81.15
2023-03-04T09:59:23.435Z,82.53
2023-03-04T10:02:37.849Z,82.66
2023-03-04T10:05:33.861Z,82.69
2023-03-04T10:09:29.545Z,82.70
2023-03-04T10:13:05.010Z,82.68
2023-03-04T10:20:36.233Z,82.48
2023-03-04T10:24:32.920Z,82.82
2023-03-04T10:28:39.835Z,83.12
2023-03-04T10:40:05.207Z,81.84
2023-03-04T10:43:22.363Z,82.61
2023-03-04T10:47:44.307Z,84.54
2023-03-04T10:52:00.329Z,86.53
2023-03-04T10:55:22.371Z,88.57
2023-03-04T10:58:31.649Z,88.96
2023-03-04T11:01:25.575Z,89.25
2023-03-04T11:06:23.406Z,89.59
2023-03-04T11:23:52.569Z,89.33
2023-03-04T13:40:20.604Z,74.53
2023-03-04T13:43:48.453Z,77.97
2023-03-04T13:47:24.394Z,82.92
2023-03-04T13:52:41.115Z,87.67
2023-03-04T13:56:37.456Z,89.87
2023-03-04T13:59:56.186Z,88.41
2023-03-04T14:14:46.041Z,83.68
2023-03-04T14:17:59.274Z,72.52
2023-03-04T14:21:37.050Z,59.32
2023-03-04T14:24:48.772Z,52.84
2023-03-04T14:28:28.078Z,49.92
2023-03-04T14:31:18.709Z,47.87
2023-03-04T14:34:06.958Z,43.92
2023-03-04T14:36:53.865Z,42.63
2023-03-04T14:40:05.081Z,40.17
2023-03-04T14:43:21.839Z,39.07
2023-03-04T14:47:07.979Z,39.06
2023-03-04T14:54:08.989Z,42.45
2023-03-04T14:58:23.754Z,46.21
2023-03-04T15:02:00.980Z,50.99
2023-03-04T15:06:43.834Z,56.07
2023-03-04T15:11:22.775Z,59.36
2023-03-04T15:19:02.690Z,62.49
2023-03-04T15:21:48.349Z,60.78
2023-03-04T15:24:33.760Z,58.40
2023-03-04T15:27:23.939Z,57.81
2023-03-04T15:30:20.913Z,57.07
2023-03-04T15:33:09.598Z,57.34
2023-03-04T15:35:57.917Z,57.15
2023-03-04T15:38:52.058Z,56.17
2023-03-04T15:41:37.000Z,56.12
2023-03-04T15:44:22.194Z,57.54
2023-03-04T15:47:13.292Z,58.34
2023-03-04T15:50:00.237Z,59.43
2023-03-04T15:52:45.473Z,58.72
2023-03-04T15:55:32.387Z,58.73
2023-03-04T15:58:18.088Z,58.77
2023-03-04T16:01:04.515Z,58.13
2023-03-04T16:05:38.231Z,58.35
2023-03-04T16:09:35.737Z,57.97
2023-03-04T16:13:54.117Z,57.62
2023-03-04T16:18:32.202Z,56.49
2023-03-04T16:21:25.423Z,57.09
2023-03-04T16:24:51.858Z,56.25
2023-03-04T16:27:40.772Z,56.36
2023-03-04T16:30:53.501Z,56.14
2023-03-04T16:33:40.864Z,53.66
2023-03-04T16:37:32.503Z,52.44
2023-03-04T16:46:51.322Z,51.55
2023-03-04T16:50:53.898Z,52.41
2023-03-04T16:54:06.268Z,52.56
2023-03-04T16:57:49.278Z,51.48
2023-03-04T17:01:21.467Z,50.19
2023-03-04T17:04:15.842Z,50.47
2023-03-04T17:07:11.079Z,50.10
2023-03-04T17:10:00.167Z,49.71
2023-03-04T17:13:09.454Z,50.23
2023-03-04T17:18:39.884Z,49.49
2023-03-04T17:26:59.380Z,50.11
2023-03-04T17:30:12.895Z,49.63
2023-03-04T17:33:24.447Z,50.14
2023-03-04T17:36:45.336Z,49.76
2023-03-04T17:44:48.459Z,48.74
2023-03-04T17:47:59.674Z,48.83
2023-03-04T17:51:52.134Z,48.79
2023-03-04T17:55:50.432Z,48.86
2023-03-04T18:03:56.093Z,49.96
2023-03-04T18:06:45.216Z,50.25
2023-03-04T18:09:47.398Z,50.19
2023-03-04T18:13:49.374Z,49.74
2023-03-04T18:17:17.957Z,50.43
2023-03-04T18:20:59.500Z,50.77
2023-03-04T18:24:47.381Z,50.06
2023-03-04T18:28:50.323Z,50.50
2023-03-04T18:32:51.705Z,51.17
2023-03-04T18:36:13.999Z,51.09
2023-03-04T18:39:34.647Z,51.96
2023-03-04T18:42:23.508Z,51.79
2023-03-04T18:45:30.959Z,51.79
2023-03-04T19:18:19.468Z,50.10
2023-03-04T19:44:13.100Z,50.77
2023-03-04T19:48:11.991Z,51.78
2023-03-04T19:57:16.039Z,51.74
2023-03-04T20:15:57.857Z,52.17
2023-03-04T20:23:39.451Z,52.26
2023-03-04T21:54:53.717Z,50.93
2023-03-04T22:55:57.400Z,51.81
2023-03-04T22:59:56.293Z,52.08
2023-03-04T23:39:09.936Z,52.92
